Time;durP1;ratioP1;P1;durP2;ratioP2;P2;SDS_P1;SDS_P2;PMS_P1;PMS_P2;Temp;Humidity;BMP_temperature;BMP_pressure;BME280_temperature;BME280_humidity;BME280_pressure;Samples;Min_cycle;Max_cycle;Signal;HPM_P1;HPM_P2
2024/02/14 00:00:19;;;;;;;15.77;9.67;;;;;;;-13.11;100.00;102370.63;5057926;28;20083;-68
2024/02/14 00:02:45;;;;;;;15.63;10.05;;;;;;;-13.19;100.00;102362.00;5056344;28;20045;-70
2024/02/14 00:05:15;;;;;;;13.80;8.70;;;;;;;-13.20;100.00;102350.03;5053200;28;20045;-67
2024/02/14 00:07:41;;;;;;;16.52;8.38;;;;;;;-13.28;100.00;102362.72;5034795;28;20044;-71
2024/02/14 00:10:07;;;;;;;17.52;8.85;;;;;;;-13.32;100.00;102342.97;5053093;28;20060;-70
2024/02/14 00:12:41;;;;;;;13.30;9.52;;;;;;;-13.04;100.00;102387.84;5053302;28;20031;-69
2024/02/14 00:15:07;;;;;;;15.50;9.27;;;;;;;-13.03;100.00;102383.59;5053318;28;20033;-69
2024/02/14 00:17:34;;;;;;;11.32;8.32;;;;;;;-13.24;100.00;102354.22;5052892;28;20448;-69
2024/02/14 00:20:04;;;;;;;18.08;10.20;;;;;;;-13.28;100.00;102337.09;5052956;28;20044;-68
2024/02/14 00:22:44;;;;;;;15.18;9.10;;;;;;;-13.17;100.00;102361.16;5053006;28;20128;-69
2024/02/14 00:25:11;;;;;;;13.47;9.70;;;;;;;-13.18;100.00;102366.28;5053207;28;20056;-68
2024/02/14 00:27:40;;;;;;;15.73;9.13;;;;;;;-13.07;100.00;102381.81;5052690;28;20041;-69
2024/02/14 00:30:06;;;;;;;18.33;10.75;;;;;;;-13.38;100.00;102335.19;5052772;28;20029;-69
2024/02/14 00:32:52;;;;;;;12.52;8.50;;;;;;;-13.14;100.00;102378.28;5053439;28;20032;-68
2024/02/14 00:35:17;;;;;;;13.37;8.93;;;;;;;-13.28;100.00;102334.53;5053023;28;20120;-70
2024/02/14 00:37:43;;;;;;;12.60;8.23;;;;;;;-13.09;100.00;102366.41;5051198;28;20115;-69
2024/02/14 00:40:10;;;;;;;20.73;11.97;;;;;;;-13.26;100.00;102357.63;5052311;28;20024;-70
2024/02/14 00:42:36;;;;;;;13.65;8.88;;;;;;;-13.27;100.00;102338.81;5053039;28;20037;-71
2024/02/14 00:45:02;;;;;;;12.63;9.23;;;;;;;-13.12;100.00;102363.78;5037145;28;20036;-71
2024/02/14 00:47:33;;;;;;;17.67;10.50;;;;;;;-13.07;100.00;102372.41;5055006;28;20108;-68
2024/02/14 00:49:58;;;;;;;13.25;9.10;;;;;;;-13.06;100.00;102374.13;5054244;28;20435;-70
2024/02/14 00:52:24;;;;;;;16.30;9.93;;;;;;;-13.09;100.00;102363.84;5051149;28;20029;-69
2024/02/14 00:54:49;;;;;;;12.07;8.17;;;;;;;-13.09;100.00;102368.97;5051689;28;20055;-70
2024/02/14 00:57:16;;;;;;;13.23;9.47;;;;;;;-13.22;100.00;102359.38;5051994;28;20045;-68
2024/02/14 00:59:42;;;;;;;13.50;9.93;;;;;;;-13.43;100.00;102324.00;5051873;28;20040;-69
2024/02/14 01:02:07;;;;;;;15.57;10.37;;;;;;;-13.35;100.00;102330.09;5051367;28;20048;-69
2024/02/14 01:04:36;;;;;;;13.90;9.80;;;;;;;-13.19;100.00;102362.00;5051451;28;20049;-69
2024/02/14 01:07:02;;;;;;;21.35;11.60;;;;;;;-13.27;100.00;102346.50;5051841;28;20045;-70
2024/02/14 01:09:28;;;;;;;14.68;9.75;;;;;;;-13.61;100.00;102286.09;5050634;28;20133;-70
2024/02/14 01:11:53;;;;;;;18.37;9.10;;;;;;;-13.18;100.00;102366.28;5051719;28;20024;-69
2024/02/14 01:14:19;;;;;;;16.30;9.43;;;;;;;-13.39;100.00;102337.72;5051700;28;20120;-68
2024/02/14 01:16:45;;;;;;;14.50;9.17;;;;;;;-13.52;100.00;102322.16;5051435;28;20040;-69
2024/02/14 01:19:11;;;;;;;11.50;8.48;;;;;;;-13.47;100.00;102333.34;5050530;28;20037;-71
2024/02/14 01:21:37;;;;;;;13.13;8.27;;;;;;;-13.24;100.00;102379.00;5051502;28;20033;-71
2024/02/14 01:24:05;;;;;;;17.00;8.77;;;;;;;-13.34;100.00;102362.59;5051201;28;20275;-69
2024/02/14 01:26:32;;;;;;;15.32;9.10;;;;;;;-13.46;100.00;102340.19;5050100;28;20045;-69
2024/02/14 01:29:00;;;;;;;13.68;9.25;;;;;;;-13.27;100.00;102366.13;5050211;28;20037;-69
2024/02/14 01:31:26;;;;;;;15.50;10.13;;;;;;;-13.25;100.00;102377.28;5051720;28;20033;-69
2024/02/14 01:33:53;;;;;;;16.75;9.10;;;;;;;-13.30;100.00;102366.91;5051482;28;20094;-69
2024/02/14 01:36:19;;;;;;;14.05;10.10;;;;;;;-13.35;100.00;102360.00;5051559;28;20041;-68
2024/02/14 01:38:45;;;;;;;19.13;10.40;;;;;;;-13.37;100.00;102356.53;5050179;28;20029;-70
2024/02/14 01:41:10;;;;;;;13.20;9.45;;;;;;;-13.42;100.00;102351.34;5050213;28;20389;-69
2024/02/14 01:43:37;;;;;;;20.73;12.43;;;;;;;-13.44;100.00;102350.47;5051453;28;20036;-69
2024/02/14 01:46:07;;;;;;;14.02;8.80;;;;;;;-13.33;99.85;102372.00;5051021;28;20047;-69
2024/02/14 01:48:41;;;;;;;14.63;9.40;;;;;;;-13.49;100.00;102352.94;5051402;28;20032;-69
2024/02/14 01:51:20;;;;;;;13.38;9.48;;;;;;;-13.60;100.00;102323.69;5050526;28;20049;-67
2024/02/14 01:53:46;;;;;;;13.82;10.07;;;;;;;-13.50;100.00;102346.09;5051107;28;20062;-71
2024/02/14 01:56:12;;;;;;;17.80;10.80;;;;;;;-13.44;100.00;102354.72;5051028;28;20044;-69
2024/02/14 01:58:38;;;;;;;16.27;9.67;;;;;;;-13.45;100.00;102358.97;5033250;28;20041;-68
2024/02/14 02:01:04;;;;;;;21.10;10.27;;;;;;;-13.51;100.00;102349.50;5051235;28;20479;-69
2024/02/14 02:03:33;;;;;;;14.83;8.93;;;;;;;-13.59;100.00;102340.78;5051579;28;20116;-68
2024/02/14 02:05:59;;;;;;;16.95;10.25;;;;;;;-13.34;99.92;102371.97;5050595;28;20043;-68
2024/02/14 02:08:24;;;;;;;20.20;10.27;;;;;;;-13.58;99.57;102344.25;5055290;28;20040;-71
2024/02/14 02:10:50;;;;;;;12.40;7.87;;;;;;;-13.37;100.00;102366.78;5055405;28;20107;-70
2024/02/14 02:13:38;;;;;;;10.35;8.07;;;;;;;-13.38;100.00;102359.94;5055370;28;20492;-67
2024/02/14 02:16:24;;;;;;;14.95;9.15;;;;;;;-13.38;99.44;102372.75;5054883;28;20044;-68
2024/02/14 02:19:10;;;;;;;16.58;10.45;;;;;;;-13.40;99.98;102370.16;5055030;28;20404;-71
2024/02/14 02:21:55;;;;;;;15.25;9.00;;;;;;;-13.42;99.02;102359.03;5056844;28;20051;-68
2024/02/14 02:24:22;;;;;;;20.43;9.23;;;;;;;-13.37;99.62;102361.66;5055849;28;20056;-68
2024/02/14 02:26:48;;;;;;;14.77;9.18;;;;;;;-13.34;98.89;102367.72;5055410;28;20041;-69
2024/02/14 02:29:33;;;;;;;12.95;8.45;;;;;;;-13.35;99.06;102370.25;5054799;28;20040;-69
2024/02/14 02:31:59;;;;;;;21.10;9.93;;;;;;;-13.52;99.00;102342.63;5055160;28;20032;-70
2024/02/14 02:34:26;;;;;;;12.48;8.25;;;;;;;-13.35;98.70;102373.69;5054764;28;20136;-69
2024/02/14 02:36:52;;;;;;;21.27;10.80;;;;;;;-13.36;98.75;102365.97;5053278;28;20040;-69
2024/02/14 02:39:36;;;;;;;14.50;9.38;;;;;;;-13.35;98.70;102362.56;5054629;28;20099;-68
2024/02/14 02:42:22;;;;;;;12.48;8.57;;;;;;;-13.36;98.52;102363.41;5054809;28;20049;-69
2024/02/14 02:45:07;;;;;;;9.18;7.80;;;;;;;-13.43;98.75;102353.88;5055622;28;20037;-69
2024/02/14 02:47:53;;;;;;;17.13;8.70;;;;;;;-13.55;98.40;102331.47;5055048;28;20111;-71
2024/02/14 02:50:38;;;;;;;13.90;7.93;;;;;;;-13.41;98.54;102359.91;5055514;28;20040;-68
2024/02/14 02:53:24;;;;;;;11.02;8.07;;;;;;;-13.40;98.77;102349.66;5056029;28;20032;-68
2024/02/14 02:56:09;;;;;;;13.48;8.30;;;;;;;-13.77;98.52;102300.34;5054213;28;20029;-69
2024/02/14 02:58:35;;;;;;;15.50;8.70;;;;;;;-13.52;98.49;102337.50;5053171;28;20389;-70
2024/02/14 03:01:00;;;;;;;13.20;8.40;;;;;;;-13.63;98.13;102322.78;5057150;28;20063;-70
2024/02/14 03:03:46;;;;;;;15.77;9.10;;;;;;;-13.61;98.67;102332.22;5043839;28;20409;-69
2024/02/14 03:06:31;;;;;;;16.27;8.48;;;;;;;-13.67;98.54;102315.88;5054632;28;20049;-71
2024/02/14 03:09:12;;;;;;;11.13;8.02;;;;;;;-13.49;98.07;102355.50;5053513;28;20039;-69
2024/02/14 03:11:58;;;;;;;20.67;9.55;;;;;;;-13.56;98.32;102345.13;5057441;28;20040;-70
2024/02/14 03:14:43;;;;;;;16.05;10.38;;;;;;;-13.61;98.47;102326.22;5054247;28;20037;-70
2024/02/14 03:17:29;;;;;;;12.07;7.97;;;;;;;-13.57;98.07;102343.41;5052961;28;20040;-71
2024/02/14 03:19:56;;;;;;;12.67;9.60;;;;;;;-13.57;98.55;102340.84;5053443;28;20055;-69
2024/02/14 03:22:22;;;;;;;12.77;8.15;;;;;;;-13.58;98.31;102341.69;5053400;28;20029;-69
2024/02/14 03:24:48;;;;;;;11.87;8.30;;;;;;;-13.77;98.26;102325.09;5057945;28;20060;-71
2024/02/14 03:27:14;;;;;;;17.23;10.77;;;;;;;-13.69;98.10;102333.78;5037052;28;20067;-68
2024/02/14 03:29:40;;;;;;;13.83;8.60;;;;;;;-13.65;98.48;102339.81;5053903;28;20068;-69
2024/02/14 03:32:08;;;;;;;12.95;8.60;;;;;;;-13.54;98.27;102364.81;5053697;28;20037;-69
2024/02/14 03:34:35;;;;;;;12.98;8.20;;;;;;;-13.70;97.63;102321.81;5053260;28;20032;-69
2024/02/14 03:37:06;;;;;;;9.20;7.20;;;;;;;-13.74;97.75;102319.16;5053356;28;20064;-68
2024/02/14 03:39:33;;;;;;;13.48;8.15;;;;;;;-13.79;97.29;102326.78;5053834;28;20032;-69
2024/02/14 03:42:02;;;;;;;11.10;7.90;;;;;;;-13.56;97.48;102371.59;5035582;28;20572;-68
2024/02/14 03:44:28;;;;;;;15.30;7.85;;;;;;;-13.63;97.23;102362.06;5036078;28;20036;-69
2024/02/14 03:46:54;;;;;;;13.40;7.90;;;;;;;-13.67;97.41;102361.97;5051965;28;20456;-70
2024/02/14 03:49:19;;;;;;;12.73;7.63;;;;;;;-13.58;97.84;102377.53;5052522;28;20033;-68
2024/02/14 03:51:46;;;;;;;15.80;10.73;;;;;;;-13.63;97.37;102369.75;5051870;28;20068;-69
2024/02/14 03:54:11;;;;;;;10.52;7.70;;;;;;;-13.66;97.74;102363.72;5053023;28;20378;-69
2024/02/14 03:56:37;;;;;;;9.77;7.13;;;;;;;-13.80;97.17;102340.41;5053333;28;20047;-72
2024/02/14 03:59:05;;;;;;;14.73;8.60;;;;;;;-13.66;96.84;102356.03;5052760;28;20489;-72
2024/02/14 04:01:31;;;;;;;9.90;7.95;;;;;;;-13.79;96.85;102326.78;5051268;28;20272;-70
2024/02/14 04:03:57;;;;;;;17.17;8.73;;;;;;;-13.52;97.36;102352.03;5051501;28;20040;-70
2024/02/14 04:06:23;;;;;;;10.63;7.70;;;;;;;-13.33;96.71;102381.38;5052875;28;20040;-70
2024/02/14 04:08:49;;;;;;;14.77;9.17;;;;;;;-13.42;96.78;102350.47;5053018;28;20089;-70
2024/02/14 04:11:14;;;;;;;12.60;8.57;;;;;;;-13.21;95.63;102379.06;5052962;28;20048;-70
2024/02/14 04:13:40;;;;;;;12.53;7.70;;;;;;;-13.25;95.77;102378.16;5053036;28;20033;-70
2024/02/14 04:16:06;;;;;;;11.23;8.07;;;;;;;-13.19;95.16;102382.50;5052359;28;20036;-69
2024/02/14 04:18:42;;;;;;;12.50;7.90;;;;;;;-13.26;95.57;102345.66;5051251;28;20029;-70
2024/02/14 04:21:08;;;;;;;11.17;8.93;;;;;;;-13.06;94.70;102380.97;5052488;28;20045;-72
2024/02/14 04:23:37;;;;;;;11.77;7.73;;;;;;;-13.13;94.67;102372.31;5050907;28;20122;-70
2024/02/14 04:26:03;;;;;;;13.57;8.23;;;;;;;-12.98;94.11;102385.41;5052303;28;20045;-69
2024/02/14 04:28:28;;;;;;;11.00;7.77;;;;;;;-13.05;93.75;102381.00;5052709;28;20041;-69
2024/02/14 04:30:55;;;;;;;10.37;8.33;;;;;;;-13.12;93.52;102348.41;5052083;28;20037;-71
2024/02/14 04:33:31;;;;;;;13.30;8.48;;;;;;;-13.52;93.24;102260.66;5051078;28;20032;-68
2024/02/14 04:35:57;;;;;;;12.27;7.80;;;;;;;-13.29;92.75;102303.75;5050784;28;20473;-66
2024/02/14 04:38:22;;;;;;;11.00;7.63;;;;;;;-12.95;92.66;102357.25;5058507;28;20024;-69
2024/02/14 04:40:48;;;;;;;9.07;7.40;;;;;;;-12.86;92.63;102375.34;5064712;28;20102;-70
2024/02/14 04:43:14;;;;;;;9.63;7.03;;;;;;;-12.86;92.07;102370.19;5068491;28;20037;-68
2024/02/14 04:45:40;;;;;;;13.20;10.10;;;;;;;-12.93;92.95;102354.69;5060815;28;20062;-67
2024/02/14 04:48:14;;;;;;;8.95;7.53;;;;;;;-12.92;92.41;102357.28;5059115;28;20560;-73
2024/02/14 04:50:40;;;;;;;12.60;8.53;;;;;;;-12.80;92.11;102381.38;5064017;28;20057;-68
2024/02/14 04:53:06;;;;;;;11.07;7.93;;;;;;;-12.90;92.67;102359.88;5065606;28;20493;-68
2024/02/14 04:55:33;;;;;;;9.73;7.40;;;;;;;-13.08;92.18;102341.63;5063707;28;20041;-68
2024/02/14 04:57:59;;;;;;;11.60;7.63;;;;;;;-12.90;92.78;102373.56;5063774;28;20104;-70
2024/02/14 05:00:26;;;;;;;12.43;7.65;;;;;;;-12.92;92.16;102362.41;5055672;28;20134;-68
2024/02/14 05:02:51;;;;;;;14.15;9.70;;;;;;;-13.15;91.97;102320.16;5054927;28;20037;-71
2024/02/14 05:05:17;;;;;;;14.87;8.80;;;;;;;-12.83;91.81;102382.22;5059500;28;20052;-74
2024/02/14 05:07:58;;;;;;;15.65;8.63;;;;;;;-12.96;92.08;102376.03;5058111;28;20124;-70
2024/02/14 05:10:24;;;;;;;13.52;8.30;;;;;;;-12.85;91.70;102386.44;5058593;28;20037;-69
2024/02/14 05:12:50;;;;;;;11.63;8.17;;;;;;;-12.97;91.61;102366.63;5059852;28;20040;-70
2024/02/14 05:15:15;;;;;;;14.57;8.67;;;;;;;-13.04;91.89;102362.19;5059896;28;20039;-71
2024/02/14 05:17:44;;;;;;;13.20;8.77;;;;;;;-13.28;92.14;102326.81;5037836;28;20473;-72
2024/02/14 05:20:11;;;;;;;14.13;8.65;;;;;;;-13.19;92.10;102352.59;5030629;28;20041;-71
2024/02/14 05:22:37;;;;;;;9.43;8.48;;;;;;;-13.02;92.20;102378.47;5030787;28;20095;-67
2024/02/14 05:25:07;;;;;;;9.93;6.45;;;;;;;-12.97;91.66;102389.69;5030211;28;20079;-70
2024/02/14 05:27:46;;;;;;;11.75;8.32;;;;;;;-13.38;91.96;102318.94;5031991;28;20095;-70
2024/02/14 05:30:12;;;;;;;13.98;10.57;;;;;;;-12.98;91.72;102392.25;5031700;28;20041;-71
2024/02/14 05:32:52;;;;;;;12.43;9.05;;;;;;;-12.97;91.33;102379.44;5032424;28;20040;-71
2024/02/14 05:35:18;;;;;;;13.80;9.20;;;;;;;-12.91;91.33;102384.66;5031868;28;20122;-70
2024/02/14 05:37:43;;;;;;;8.53;6.73;;;;;;;-12.92;91.76;102380.38;5030911;28;20076;-67
2024/02/14 05:40:09;;;;;;;8.47;6.87;;;;;;;-12.96;90.89;102363.22;5032698;28;20029;-71
2024/02/14 05:42:35;;;;;;;16.23;8.45;;;;;;;-12.71;90.93;102404.66;5035707;28;20056;-73
2024/02/14 05:45:03;;;;;;;13.70;8.00;;;;;;;-12.66;90.79;102411.56;5034959;28;20055;-71
2024/02/14 05:47:33;;;;;;;11.02;7.85;;;;;;;-12.72;90.15;102385.81;5034428;28;20304;-73
2024/02/14 05:49:59;;;;;;;11.47;7.87;;;;;;;-12.88;90.14;102364.19;5034900;28;20458;-70
2024/02/14 05:52:24;;;;;;;12.63;7.83;;;;;;;-12.71;89.83;102372.16;5035571;28;20033;-68
2024/02/14 05:54:50;;;;;;;11.40;7.70;;;;;;;-12.48;89.13;102413.53;5034060;28;20405;-70
2024/02/14 05:57:15;;;;;;;9.60;7.10;;;;;;;-12.57;88.77;102398.00;5034137;28;20116;-70
2024/02/14 05:59:41;;;;;;;11.33;6.70;;;;;;;-12.42;88.49;102416.22;5035347;28;20098;-71
2024/02/14 06:02:08;;;;;;;11.03;7.10;;;;;;;-12.62;88.54;102371.41;5034027;28;20060;-70
2024/02/14 06:04:33;;;;;;;9.00;8.05;;;;;;;-12.41;88.25;102397.41;5017284;28;20056;-68
2024/02/14 06:06:59;;;;;;;11.00;7.60;;;;;;;-12.35;87.80;102419.72;5033984;28;20063;-69
2024/02/14 06:09:25;;;;;;;10.83;7.77;;;;;;;-12.38;87.69;102414.56;5035188;28;20053;-69
2024/02/14 06:11:53;;;;;;;11.00;6.57;;;;;;;-12.47;87.79;102399.00;5017137;28;20045;-69
2024/02/14 06:14:19;;;;;;;12.73;7.25;;;;;;;-12.42;88.04;102400.81;5034069;28;20509;-71
2024/02/14 06:16:45;;;;;;;11.03;7.73;;;;;;;-12.42;87.54;102385.41;5035588;28;20046;-70
2024/02/14 06:19:11;;;;;;;10.03;7.80;;;;;;;-12.44;87.24;102381.94;5035119;28;20277;-70
2024/02/14 06:21:37;;;;;;;12.90;8.05;;;;;;;-12.38;87.04;102384.59;5034115;28;20033;-68
2024/02/14 06:24:04;;;;;;;13.40;10.60;;;;;;;-12.23;86.83;102392.50;5033194;28;20413;-66
2024/02/14 06:26:31;;;;;;;10.02;6.65;;;;;;;-12.21;86.51;102383.13;5033263;28;20045;-67
2024/02/14 06:28:57;;;;;;;9.65;6.40;;;;;;;-12.14;86.53;102371.25;5033349;28;20091;-68
2024/02/14 06:31:22;;;;;;;10.80;7.20;;;;;;;-11.92;85.37;102398.03;5034133;28;20033;-70
2024/02/14 06:33:48;;;;;;;10.90;7.47;;;;;;;-12.14;85.43;102375.47;5034025;28;20025;-71
2024/02/14 06:36:14;;;;;;;8.13;7.07;;;;;;;-12.07;85.65;102372.19;5034018;28;20116;-68
2024/02/14 06:38:39;;;;;;;12.80;8.40;;;;;;;-11.83;85.38;102403.31;5035102;28;20059;-72
2024/02/14 06:41:05;;;;;;;10.60;7.57;;;;;;;-12.14;85.08;102340.41;5033426;28;20031;-68
2024/02/14 06:43:31;;;;;;;14.02;9.07;;;;;;;-11.95;84.63;102385.16;5034108;28;20065;-70
2024/02/14 06:45:57;;;;;;;14.17;9.30;;;;;;;-11.80;84.85;102403.34;5033013;28;20115;-70
2024/02/14 06:48:27;;;;;;;9.75;7.05;;;;;;;-11.75;84.54;102406.78;5034685;28;20033;-71
2024/02/14 06:50:53;;;;;;;13.10;7.90;;;;;;;-11.77;84.20;102402.47;5032928;28;20120;-69
2024/02/14 06:53:19;;;;;;;13.38;6.90;;;;;;;-11.96;84.45;102376.59;5034569;28;20040;-68
2024/02/14 06:55:44;;;;;;;11.53;7.43;;;;;;;-11.92;84.18;102372.34;5035429;28;20034;-69
2024/02/14 06:58:10;;;;;;;10.30;7.40;;;;;;;-11.81;84.46;102378.50;5038049;28;20041;-67
2024/02/14 07:00:36;;;;;;;14.33;9.00;;;;;;;-11.78;84.63;102373.38;5037781;28;20063;-68
2024/02/14 07:03:02;;;;;;;13.60;7.30;;;;;;;-12.96;84.23;102163.16;5037600;28;20041;-67
2024/02/14 07:05:29;;;;;;;12.13;7.35;;;;;;;-11.59;83.89;102389.81;5035265;28;20038;-69
2024/02/14 07:07:55;;;;;;;9.85;7.53;;;;;;;-11.60;83.60;102380.38;5034268;28;20413;-69
2024/02/14 07:10:21;;;;;;;10.68;7.72;;;;;;;-11.59;83.05;102375.25;5033905;28;20578;-68
2024/02/14 07:12:47;;;;;;;14.40;7.60;;;;;;;-11.52;83.56;102373.63;5034181;28;20053;-70
2024/02/14 07:15:13;;;;;;;9.73;6.57;;;;;;;-11.30;82.65;102400.41;5034813;28;20068;-71
2024/02/14 07:17:38;;;;;;;10.38;7.72;;;;;;;-12.01;82.08;102259.22;5033515;28;20033;-69
2024/02/14 07:20:05;;;;;;;11.83;7.80;;;;;;;-11.19;81.74;102401.41;5033970;28;20033;-68
2024/02/14 07:22:33;;;;;;;8.13;6.53;;;;;;;-11.17;81.83;102412.56;5033799;28;20041;-68
2024/02/14 07:24:59;;;;;;;14.20;9.40;;;;;;;-11.20;81.66;102402.25;5033373;28;20139;-68
2024/02/14 07:27:24;;;;;;;9.80;6.60;;;;;;;-11.26;81.28;102387.63;5034957;28;20132;-71
2024/02/14 07:29:50;;;;;;;13.70;8.33;;;;;;;-11.35;81.68;102387.50;5033617;28;20171;-71
2024/02/14 07:32:16;;;;;;;13.33;8.70;;;;;;;-11.72;81.24;102329.72;5032669;28;20040;-69
2024/02/14 07:34:42;;;;;;;17.15;9.05;;;;;;;-11.24;81.62;102399.63;5034505;28;20095;-68
2024/02/14 07:37:08;;;;;;;13.73;8.77;;;;;;;-11.23;82.02;102373.06;5033324;28;20124;-71
2024/02/14 07:39:36;;;;;;;15.17;8.27;;;;;;;-11.23;81.01;102360.22;5033998;28;20473;-67
2024/02/14 07:42:02;;;;;;;11.20;8.02;;;;;;;-10.88;80.52;102399.09;5032711;28;20052;-70
2024/02/14 07:44:28;;;;;;;13.05;7.82;;;;;;;-10.81;79.97;102398.28;5032251;28;20037;-70
2024/02/14 07:46:54;;;;;;;11.17;7.27;;;;;;;-10.75;79.50;102395.75;5033558;28;20044;-69
2024/02/14 07:49:19;;;;;;;11.90;7.60;;;;;;;-10.75;79.23;102383.75;5034005;28;20053;-71
2024/02/14 07:51:45;;;;;;;18.57;7.77;;;;;;;-10.64;79.00;102405.28;5033933;28;20055;-71
2024/02/14 07:54:11;;;;;;;10.80;7.22;;;;;;;-10.82;78.40;102360.53;5032567;28;20083;-70
2024/02/14 07:56:36;;;;;;;11.33;7.90;;;;;;;-10.85;78.42;102363.94;5015191;28;20091;-68
2024/02/14 07:59:02;;;;;;;20.87;7.60;;;;;;;-10.58;78.26;102398.47;5032423;28;20045;-69
2024/02/14 08:01:30;;;;;;;14.90;6.43;;;;;;;-10.52;78.95;102401.06;5031823;28;20045;-70
2024/02/14 08:03:55;;;;;;;10.25;7.78;;;;;;;-10.74;79.55;102343.41;5014897;28;20272;-70
2024/02/14 08:06:21;;;;;;;15.13;8.40;;;;;;;-10.41;78.22;102405.47;5030834;28;20071;-67
2024/02/14 08:08:51;;;;;;;11.47;7.73;;;;;;;-10.42;78.15;102401.13;5033303;28;20089;-69
2024/02/14 08:11:17;;;;;;;8.70;6.70;;;;;;;-10.48;78.50;102359.91;5033330;28;20095;-69
2024/02/14 08:13:43;;;;;;;10.73;6.97;;;;;;;-10.17;77.05;102411.56;5015104;28;20037;-70
2024/02/14 08:16:08;;;;;;;8.90;7.13;;;;;;;-10.13;77.28;102398.69;5031650;28;20029;-71
2024/02/14 08:18:35;;;;;;;6.03;5.47;;;;;;;-9.89;77.70;102408.28;5032921;28;20048;-71
2024/02/14 08:21:00;;;;;;;10.95;7.88;;;;;;;-9.74;76.08;102418.66;5031424;28;20038;-70
2024/02/14 08:23:27;;;;;;;15.05;8.70;;;;;;;-9.72;76.26;102416.09;5032649;28;20025;-68
2024/02/14 08:25:54;;;;;;;10.87;7.87;;;;;;;-9.74;75.12;102410.94;5032203;28;20084;-68
2024/02/14 08:28:20;;;;;;;9.25;6.53;;;;;;;-9.78;75.64;102401.47;5030758;28;20517;-68
2024/02/14 08:30:47;;;;;;;18.13;8.48;;;;;;;-9.99;75.08;102378.16;5031229;28;20146;-67
2024/02/14 08:33:13;;;;;;;8.82;7.80;;;;;;;-10.13;76.10;102356.59;5033198;28;20029;-68
2024/02/14 08:35:39;;;;;;;13.63;6.78;;;;;;;-9.73;74.82;102404.06;5031202;28;20040;-70
2024/02/14 08:38:06;;;;;;;10.97;6.53;;;;;;;-9.79;75.21;102410.06;5032241;28;20087;-69
2024/02/14 08:40:32;;;;;;;11.75;8.05;;;;;;;-9.66;76.08;102415.25;5030827;28;20083;-69
2024/02/14 08:42:59;;;;;;;10.83;7.67;;;;;;;-9.51;76.43;102410.16;5017874;28;20464;-68
2024/02/14 08:45:25;;;;;;;8.30;6.55;;;;;;;-9.59;74.40;102386.03;5035780;28;20077;-68
2024/02/14 08:47:51;;;;;;;15.73;7.97;;;;;;;-9.46;74.08;102418.75;5032970;28;20044;-74
2024/02/14 08:50:17;;;;;;;12.07;7.47;;;;;;;-9.50;73.87;102415.31;5032549;28;20108;-70
2024/02/14 08:52:42;;;;;;;10.17;7.50;;;;;;;-9.59;73.59;102393.78;5034042;28;20127;-68
2024/02/14 08:55:17;;;;;;;8.13;7.20;;;;;;;-9.55;73.81;102388.63;5035760;28;20069;-68
2024/02/14 08:57:45;;;;;;;13.40;8.57;;;;;;;-9.55;73.79;102369.72;5034530;28;20071;-70
2024/02/14 09:00:14;;;;;;;9.90;6.30;;;;;;;-9.35;73.24;102422.22;5034195;28;20041;-70
2024/02/14 09:02:41;;;;;;;10.13;8.27;;;;;;;-9.27;72.95;102420.50;5018830;28;20700;-69
2024/02/14 09:05:06;;;;;;;10.95;7.25;;;;;;;-9.31;72.47;102416.19;5046457;28;20046;-69
2024/02/14 09:07:33;;;;;;;10.23;7.30;;;;;;;-9.20;73.03;102422.25;5041501;28;20049;-69
2024/02/14 09:09:59;;;;;;;11.95;6.93;;;;;;;-9.09;72.18;102407.66;5035787;28;20039;-70
2024/02/14 09:12:25;;;;;;;13.63;7.53;;;;;;;-9.09;71.84;102404.22;5041494;28;20049;-68
2024/02/14 09:14:51;;;;;;;10.33;6.83;;;;;;;-9.12;71.76;102393.88;5046560;28;20026;-71
2024/02/14 09:17:16;;;;;;;17.33;7.70;;;;;;;-8.93;70.91;102425.75;5041739;28;20112;-68
2024/02/14 09:19:42;;;;;;;9.73;6.53;;;;;;;-8.97;70.81;102404.19;5024285;28;20044;-69
2024/02/14 09:22:07;;;;;;;14.40;7.17;;;;;;;-9.01;70.94;102406.78;5044856;28;20116;-69
2024/02/14 09:24:33;;;;;;;9.45;5.97;;;;;;;-9.02;71.81;102394.75;5046221;28;20061;-70
2024/02/14 09:27:05;;;;;;;9.60;6.63;;;;;;;-8.67;71.30;102424.03;5044985;28;20053;-73
2024/02/14 09:29:31;;;;;;;;;;;;;;;-8.65;70.31;102422.31;5040399;28;20069;-69
2024/02/14 09:31:56;;;;;;;15.07;6.73;;;;;;;-8.70;71.14;102418.84;5039463;28;19928;-69
2024/02/14 09:34:22;;;;;;;7.33;5.67;;;;;;;-8.68;70.19;102427.44;5041087;28;20061;-67
2024/02/14 09:36:49;;;;;;;11.63;6.37;;;;;;;-8.80;70.22;102423.16;5044149;28;20044;-67
2024/02/14 09:39:17;;;;;;;11.80;6.30;;;;;;;-8.98;70.83;102386.13;5036370;28;20041;-67
2024/02/14 09:41:47;;;;;;;10.80;6.65;;;;;;;-8.84;70.23;102397.34;5039643;28;20048;-69
2024/02/14 09:44:15;;;;;;;16.85;7.72;;;;;;;-8.86;69.14;102405.09;5045263;28;20029;-75
2024/02/14 09:46:41;;;;;;;9.27;7.68;;;;;;;-8.70;71.30;102429.19;5030438;28;20040;-70
2024/02/14 09:49:08;;;;;;;15.57;6.55;;;;;;;-8.64;70.91;102434.38;5013778;28;20398;-74
2024/02/14 09:51:36;;;;;;;8.13;5.65;;;;;;;-8.58;70.13;102433.50;5032196;28;20033;-65
2024/02/14 09:54:02;;;;;;;9.65;5.82;;;;;;;-8.76;68.77;102413.69;5032036;28;20492;-68
2024/02/14 09:56:30;;;;;;;9.48;5.57;;;;;;;-8.78;69.59;102399.91;5030948;28;20037;-73
2024/02/14 09:58:57;;;;;;;7.22;5.72;;;;;;;-8.78;70.22;102397.34;5032349;28;20124;-72
2024/02/14 10:01:24;;;;;;;9.88;7.32;;;;;;;-8.46;70.78;102426.59;5031674;28;20079;-67
2024/02/14 10:03:54;;;;;;;15.23;6.65;;;;;;;-8.25;70.29;102442.91;5029854;28;20048;-67
2024/02/14 10:06:20;;;;;;;14.45;6.25;;;;;;;-8.24;69.76;102408.44;5027986;28;20048;-68
2024/02/14 10:08:50;;;;;;;6.75;5.95;;;;;;;-8.15;68.18;102418.75;5030845;28;20092;-67
2024/02/14 10:11:18;;;;;;;13.50;6.97;;;;;;;-8.19;68.33;102433.41;5031276;28;20116;-67
2024/02/14 10:13:46;;;;;;;9.02;7.10;;;;;;;-8.36;68.22;102408.50;5030110;28;20103;-70
2024/02/14 10:20:17;;;;;;;9.82;6.05;;;;;;;-8.18;70.28;102421.34;5030241;28;20524;-69
2024/02/14 10:22:49;;;;;;;9.15;6.20;;;;;;;-8.13;69.93;102427.34;5029167;28;20124;-71
2024/02/14 10:25:15;;;;;;;12.35;6.45;;;;;;;-8.33;69.23;102390.41;5030904;28;20072;-68
2024/02/14 10:27:41;;;;;;;7.93;6.30;;;;;;;-8.11;69.20;102426.50;5031886;28;20072;-69
2024/02/14 10:30:10;;;;;;;14.67;6.53;;;;;;;-8.28;69.35;102433.44;5033507;28;20036;-69
2024/02/14 10:32:40;;;;;;;8.27;5.72;;;;;;;-8.41;71.92;102412.78;5033927;28;20501;-67
2024/02/14 10:35:11;;;;;;;9.73;5.97;;;;;;;-8.56;74.58;102411.97;5035389;28;20086;-69
2024/02/14 10:37:38;;;;;;;10.73;6.03;;;;;;;-8.32;75.97;102429.13;5045412;28;20038;-68
2024/02/14 10:40:04;;;;;;;12.93;6.75;;;;;;;-8.43;76.51;102395.56;5014843;28;20085;-70
2024/02/14 10:42:33;;;;;;;8.68;6.75;;;;;;;-8.31;77.43;102406.75;5015263;28;20351;-70
2024/02/14 10:45:00;;;;;;;8.95;7.65;;;;;;;-8.28;78.69;102422.25;5013934;28;20125;-70
2024/02/14 10:47:34;;;;;;;12.65;8.13;;;;;;;-8.28;78.51;102430.00;5014296;28;20038;-71
2024/02/14 10:50:07;;;;;;;8.18;6.55;;;;;;;-8.59;78.17;102380.97;4997053;28;20474;-69
2024/02/14 10:52:43;;;;;;;9.00;5.93;;;;;;;-8.68;79.12;102390.44;5014401;28;20037;-69
2024/02/14 10:55:12;;;;;;;7.68;5.93;;;;;;;-8.53;79.71;102422.28;5014212;28;20033;-71
2024/02/14 10:57:38;;;;;;;9.07;5.83;;;;;;;-8.47;81.18;102445.53;5013174;28;20477;-69
2024/02/14 11:00:09;;;;;;;9.10;6.05;;;;;;;-8.69;83.74;102409.38;5013694;28;20760;-71
2024/02/14 11:02:37;;;;;;;7.38;6.03;;;;;;;-8.72;86.28;102420.56;5013919;28;20113;-68
2024/02/14 11:05:04;;;;;;;15.23;6.93;;;;;;;-8.83;89.32;102430.03;5012453;28;20041;-70
2024/02/14 11:07:31;;;;;;;13.45;7.78;;;;;;;-8.79;89.91;102429.19;5029077;28;20512;-72
2024/02/14 11:10:09;;;;;;;13.23;6.75;;;;;;;-8.93;91.79;102399.94;5013663;28;20350;-74
2024/02/14 11:12:38;;;;;;;13.60;6.80;;;;;;;-9.20;92.22;102360.34;5013720;28;20045;-68
2024/02/14 11:15:15;;;;;;;18.33;7.18;;;;;;;-9.01;93.97;102420.56;5012189;28;20081;-70
2024/02/14 11:17:42;;;;;;;13.68;7.68;;;;;;;-9.23;97.03;102396.47;5013792;28;20117;-70
2024/02/14 11:20:32;;;;;;;9.10;6.38;;;;;;;-9.02;97.88;102426.56;5013507;28;20049;-68